createdAt,value
2023-03-17T00:03:25.954Z,-3.49
2023-03-17T00:08:32.876Z,-3.60
2023-03-17T00:13:35.340Z,-3.40
2023-03-17T00:18:37.593Z,-3.47
2023-03-17T00:23:41.197Z,-3.47
2023-03-17T00:28:43.333Z,-3.60
2023-03-17T00:33:46.491Z,-3.67
2023-03-17T00:38:51.009Z,-3.58
2023-03-17T00:43:53.426Z,-3.46
2023-03-17T00:48:55.453Z,-3.51
2023-03-17T00:53:58.778Z,-3.45
2023-03-17T00:59:00.781Z,-3.43
2023-03-17T01:04:02.904Z,-3.36
2023-03-17T01:09:06.237Z,-3.34
2023-03-17T01:14:09.572Z,-3.37
2023-03-17T01:19:13.299Z,-3.29
2023-03-17T01:24:16.631Z,-3.39
2023-03-17T01:29:18.589Z,-3.36
2023-03-17T01:34:20.561Z,-3.21
2023-03-17T01:39:23.878Z,-3.11
2023-03-17T01:44:25.806Z,-3.04
2023-03-17T01:49:31.226Z,-3.22
2023-03-17T01:54:39.985Z,-3.16
2023-03-17T01:59:45.518Z,-3.14
2023-03-17T02:04:47.869Z,-3.16
2023-03-17T02:09:52.572Z,-3.08
2023-03-17T02:14:54.901Z,-3.12
2023-03-17T02:19:57.009Z,-3.19
2023-03-17T02:25:00.763Z,-3.35
2023-03-17T02:30:04.470Z,-3.47
2023-03-17T02:35:08.310Z,-3.42
2023-03-17T02:40:13.948Z,-3.51
2023-03-17T02:45:16.106Z,-3.65
2023-03-17T02:50:21.230Z,-3.72
2023-03-17T02:55:24.565Z,-3.50
2023-03-17T03:00:26.495Z,-3.53
2023-03-17T03:05:28.823Z,-3.57
2023-03-17T03:10:32.660Z,-3.40
2023-03-17T03:15:35.716Z,-3.19
2023-03-17T03:20:37.730Z,-2.97
2023-03-17T03:25:41.689Z,-2.69
2023-03-17T03:30:44.746Z,-2.78
2023-03-17T03:35:46.805Z,-2.59
2023-03-17T03:40:50.304Z,-2.50
2023-03-17T03:45:52.512Z,-2.26
2023-03-17T03:50:57.035Z,-2.13
2023-03-17T03:56:00.872Z,-1.54
2023-03-17T04:01:04.375Z,-0.98
2023-03-17T04:06:06.802Z,-0.46
2023-03-17T04:11:10.098Z,0.20
2023-03-17T04:16:12.269Z,0.64
2023-03-17T04:21:18.304Z,0.62
2023-03-17T04:26:23.075Z,0.69
2023-03-17T04:31:25.757Z,0.75
2023-03-17T04:36:27.947Z,0.84
2023-03-17T04:41:31.267Z,0.84
2023-03-17T04:46:34.268Z,1.01
2023-03-17T04:51:36.849Z,1.12
2023-03-17T04:56:40.409Z,1.31
2023-03-17T05:01:42.626Z,1.45
2023-03-17T05:06:44.636Z,1.62
2023-03-17T05:11:48.187Z,1.63
2023-03-17T05:16:50.931Z,1.64
2023-03-17T05:21:52.939Z,1.63
2023-03-17T05:26:56.253Z,1.84
2023-03-17T05:31:58.211Z,2.13
2023-03-17T05:37:00.813Z,2.36
2023-03-17T05:42:04.482Z,2.52
2023-03-17T05:47:08.011Z,2.70
2023-03-17T05:52:10.064Z,2.79
2023-03-17T05:57:13.579Z,2.97
2023-03-17T06:02:15.721Z,3.10
2023-03-17T06:07:17.768Z,3.24
2023-03-17T06:12:21.468Z,3.44
2023-03-17T06:17:23.779Z,3.63
2023-03-17T06:22:25.989Z,3.74
2023-03-17T06:27:29.292Z,3.83
2023-03-17T06:32:31.553Z,3.89
2023-03-17T06:37:34.142Z,3.93
2023-03-17T06:42:37.517Z,3.92
2023-03-17T06:47:39.971Z,4.00
2023-03-17T06:52:41.973Z,4.11
2023-03-17T06:57:45.437Z,4.34
2023-03-17T07:02:47.421Z,4.49
2023-03-17T07:07:49.778Z,4.65
2023-03-17T07:12:53.270Z,4.76
2023-03-17T07:17:55.694Z,4.89
2023-03-17T07:22:58.089Z,4.90
2023-03-17T07:28:01.404Z,5.03
2023-03-17T07:33:04.349Z,5.13
2023-03-17T07:38:06.498Z,5.10
2023-03-17T07:43:09.850Z,5.31
2023-03-17T07:48:11.813Z,5.36
2023-03-17T07:53:13.863Z,5.46
2023-03-17T07:58:17.193Z,5.68
2023-03-17T08:03:19.441Z,5.81
2023-03-17T08:08:22.160Z,5.96
2023-03-17T08:13:25.910Z,6.22
2023-03-17T08:18:28.093Z,6.38
2023-03-17T08:23:30.986Z,6.40
2023-03-17T08:28:34.485Z,6.51
2023-03-17T08:33:36.634Z,6.71
2023-03-17T08:38:40.587Z,6.87
2023-03-17T08:43:45.334Z,7.02
2023-03-17T08:48:49.273Z,7.30
2023-03-17T08:53:51.751Z,7.53
2023-03-17T08:58:55.194Z,7.52
2023-03-17T09:03:57.233Z,7.92
2023-03-17T09:09:00.319Z,8.03
2023-03-17T09:14:03.695Z,8.47
2023-03-17T09:19:05.653Z,8.62
2023-03-17T09:24:08.456Z,8.39
2023-03-17T09:29:12.986Z,8.95
2023-03-17T09:34:14.928Z,9.11
2023-03-17T09:39:17.105Z,9.60
2023-03-17T09:44:45.945Z,9.52
2023-03-17T09:49:52.295Z,9.61
2023-03-17T09:54:54.925Z,9.77
2023-03-17T10:00:01.863Z,9.52
2023-03-17T10:05:13.735Z,10.23
2023-03-17T10:10:21.832Z,9.63
2023-03-17T10:15:32.401Z,10.27
2023-03-17T10:20:42.548Z,10.54
2023-03-17T10:25:46.615Z,10.49
2023-03-17T10:30:50.128Z,10.27
2023-03-17T10:35:52.117Z,10.33
2023-03-17T10:40:56.830Z,10.46
2023-03-17T10:46:02.432Z,10.73
2023-03-17T10:51:08.714Z,10.29
2023-03-17T10:56:20.402Z,10.64
2023-03-17T11:01:30.233Z,11.01
2023-03-17T11:06:37.436Z,10.71
2023-03-17T11:11:44.333Z,10.75
2023-03-17T11:16:54.203Z,10.93
2023-03-17T11:22:04.916Z,10.98
2023-03-17T11:27:13.250Z,11.11
2023-03-17T11:32:28.687Z,10.82
2023-03-17T11:37:51.449Z,11.42
2023-03-17T11:43:05.561Z,11.21
2023-03-17T11:48:30.047Z,11.01
2023-03-17T11:53:50.165Z,10.43
2023-03-17T11:58:56.381Z,10.92
2023-03-17T12:04:11.101Z,10.86
2023-03-17T12:09:22.141Z,11.16
2023-03-17T12:14:30.075Z,11.59
2023-03-17T12:19:39.689Z,11.17
2023-03-17T12:24:48.147Z,11.33
2023-03-17T12:29:57.122Z,11.51
2023-03-17T12:35:02.492Z,10.81
2023-03-17T12:40:10.277Z,10.53
2023-03-17T12:45:29.583Z,10.96
2023-03-17T12:50:46.649Z,11.20
2023-03-17T12:55:51.106Z,10.97
2023-03-17T13:01:01.000Z,11.29
2023-03-17T13:06:08.518Z,10.78
2023-03-17T13:11:17.819Z,11.34
2023-03-17T13:16:28.061Z,11.32
2023-03-17T13:21:34.622Z,11.34
2023-03-17T13:27:01.867Z,11.17
2023-03-17T13:32:31.496Z,11.22
2023-03-17T13:37:47.761Z,11.43
2023-03-17T13:43:15.382Z,11.40
2023-03-17T13:48:34.293Z,11.51
2023-03-17T13:53:41.308Z,11.49
2023-03-17T13:58:53.247Z,11.07
2023-03-17T14:03:56.826Z,11.30
2023-03-17T14:09:07.984Z,11.34
2023-03-17T14:14:33.399Z,11.33
2023-03-17T14:19:38.996Z,11.08
2023-03-17T14:24:42.266Z,10.87
2023-03-17T14:29:44.452Z,10.71
2023-03-17T14:34:48.672Z,10.91
2023-03-17T14:39:54.330Z,10.90
2023-03-17T14:45:01.672Z,10.82
2023-03-17T14:50:05.945Z,11.05
2023-03-17T14:55:14.794Z,11.05
2023-03-17T15:00:33.912Z,11.14
2023-03-17T15:05:38.701Z,11.08
2023-03-17T15:10:43.600Z,11.06
2023-03-17T15:15:45.924Z,10.71
2023-03-17T15:20:47.887Z,10.86
2023-03-17T15:25:56.271Z,10.50
2023-03-17T15:31:11.824Z,10.40
2023-03-17T15:36:31.193Z,10.16
2023-03-17T15:41:35.976Z,9.89
2023-03-17T15:46:37.970Z,9.79
2023-03-17T15:51:40.237Z,9.69
2023-03-17T15:56:43.767Z,9.49
2023-03-17T16:01:46.760Z,9.23
2023-03-17T16:06:49.245Z,8.98
2023-03-17T16:11:52.596Z,8.80
2023-03-17T16:16:54.680Z,8.42
2023-03-17T16:21:57.123Z,8.36
2023-03-17T16:27:00.619Z,8.34
2023-03-17T16:32:02.682Z,7.83
2023-03-17T16:37:05.636Z,7.33
2023-03-17T16:42:18.089Z,6.74
2023-03-17T16:47:20.086Z,6.35
2023-03-17T16:52:22.083Z,5.86
2023-03-17T16:57:25.470Z,5.49
2023-03-17T17:02:27.446Z,5.20
2023-03-17T17:07:29.440Z,4.86
2023-03-17T17:12:32.752Z,4.59
2023-03-17T17:17:35.538Z,4.38
2023-03-17T17:22:37.760Z,4.22
2023-03-17T17:27:43.414Z,3.91
2023-03-17T17:32:46.686Z,3.75
2023-03-17T17:37:48.708Z,3.52
2023-03-17T17:42:52.902Z,3.51
2023-03-17T17:47:54.869Z,3.30
2023-03-17T17:53:02.693Z,3.20
2023-03-17T17:58:06.349Z,2.97
2023-03-17T18:03:08.664Z,2.80
2023-03-17T18:08:13.581Z,2.70
2023-03-17T18:13:16.991Z,2.76
2023-03-17T18:18:18.954Z,2.70
2023-03-17T18:23:21.108Z,2.42
2023-03-17T18:28:24.428Z,2.41
2023-03-17T18:33:26.958Z,2.34
2023-03-17T18:38:28.980Z,2.07
2023-03-17T18:43:32.383Z,1.93
2023-03-17T18:48:37.299Z,1.82
2023-03-17T18:53:39.978Z,1.66
2023-03-17T18:58:43.425Z,1.45
2023-03-17T19:03:45.882Z,1.39
2023-03-17T19:08:48.255Z,1.41
2023-03-17T19:13:52.434Z,1.25
2023-03-17T19:18:55.890Z,1.13
2023-03-17T19:23:59.826Z,0.90
2023-03-17T19:29:03.373Z,0.81
2023-03-17T19:34:05.357Z,0.79
2023-03-17T19:39:09.007Z,0.88
2023-03-17T19:44:12.482Z,1.05
2023-03-17T19:49:14.960Z,1.06
2023-03-17T19:54:18.654Z,1.29
2023-03-17T19:59:22.580Z,1.51
2023-03-17T20:04:24.515Z,1.46
2023-03-17T20:09:27.322Z,1.20
2023-03-17T20:14:30.756Z,1.15
2023-03-17T20:19:32.928Z,1.05
2023-03-17T20:24:35.258Z,1.42
2023-03-17T20:29:38.742Z,1.96
2023-03-17T20:34:43.067Z,2.67
2023-03-17T20:39:45.253Z,3.43
2023-03-17T20:44:52.755Z,3.73
2023-03-17T20:49:58.579Z,3.93
2023-03-17T20:55:00.598Z,3.79
2023-03-17T21:00:04.809Z,3.66
2023-03-17T21:05:07.437Z,3.52
2023-03-17T21:10:10.471Z,3.55
2023-03-17T21:15:14.121Z,3.15
2023-03-17T21:20:17.129Z,2.71
2023-03-17T21:25:20.110Z,2.94
2023-03-17T21:30:23.481Z,2.57
2023-03-17T21:35:26.683Z,2.62
2023-03-17T21:40:31.125Z,2.50
2023-03-17T21:45:34.785Z,2.05
2023-03-17T21:50:37.141Z,1.80
2023-03-17T21:55:39.445Z,1.67
2023-03-17T22:00:45.904Z,1.56
2023-03-17T22:05:48.377Z,1.45
2023-03-17T22:10:50.422Z,1.20
2023-03-17T22:15:53.949Z,1.22
2023-03-17T22:20:57.426Z,1.41
2023-03-17T22:25:59.427Z,1.31
2023-03-17T22:31:06.624Z,1.47
2023-03-17T22:36:09.094Z,1.43
2023-03-17T22:41:13.924Z,1.45
2023-03-17T22:46:17.899Z,1.18
2023-03-17T22:51:23.309Z,0.99
2023-03-17T22:56:26.492Z,0.90
2023-03-17T23:01:29.915Z,1.00
2023-03-17T23:06:32.175Z,0.93
2023-03-17T23:11:34.182Z,0.83
2023-03-17T23:16:37.696Z,0.67
2023-03-17T23:21:40.032Z,0.65
2023-03-17T23:26:42.040Z,0.62
2023-03-17T23:31:45.573Z,0.79
2023-03-17T23:36:47.654Z,1.08
2023-03-17T23:41:49.988Z,1.20
2023-03-17T23:46:53.359Z,1.18
2023-03-17T23:51:55.330Z,1.19
2023-03-17T23:56:57.505Z,1.23
